sensor_id;sensor_type;location;lat;lon;timestamp;pressure;altitude;pressure_sealevel;temperature;humidity
16016;BME280;8112;53.592;10.184;2024-03-02T00:00:11;100144.69;;;8.18;100.00
16016;BME280;8112;53.592;10.184;2024-03-02T00:05:18;100148.88;;;8.06;100.00
16016;BME280;8112;53.592;10.184;2024-03-02T00:10:22;100140.53;;;7.99;100.00
16016;BME280;8112;53.592;10.184;2024-03-02T00:15:41;100140.53;;;7.99;100.00
16016;BME280;8112;53.592;10.184;2024-03-02T00:20:45;100141.34;;;8.00;100.00
16016;BME280;8112;53.592;10.184;2024-03-02T00:25:49;100130.22;;;7.96;100.00
16016;BME280;8112;53.592;10.184;2024-03-02T00:30:58;100136.09;;;8.00;100.00
16016;BME280;8112;53.592;10.184;2024-03-02T00:36:05;100122.34;;;8.11;100.00
16016;BME280;8112;53.592;10.184;2024-03-02T00:41:07;100117.75;;;8.00;100.00
16016;BME280;8112;53.592;10.184;2024-03-02T00:46:11;100116.16;;;7.97;100.00
16016;BME280;8112;53.592;10.184;2024-03-02T00:51:14;100124.97;;;7.96;100.00
16016;BME280;8112;53.592;10.184;2024-03-02T00:56:16;100120.53;;;7.97;100.00
16016;BME280;8112;53.592;10.184;2024-03-02T01:01:19;100115.66;;;7.91;100.00
16016;BME280;8112;53.592;10.184;2024-03-02T01:06:23;100120.91;;;7.91;100.00
16016;BME280;8112;53.592;10.184;2024-03-02T01:11:25;100112.38;;;7.87;100.00
16016;BME280;8112;53.592;10.184;2024-03-02T01:16:27;100111.19;;;7.77;100.00
16016;BME280;8112;53.592;10.184;2024-03-02T01:21:30;100123.56;;;7.75;100.00
16016;BME280;8112;53.592;10.184;2024-03-02T01:26:32;100117.13;;;7.80;100.00
16016;BME280;8112;53.592;10.184;2024-03-02T01:31:34;100124.16;;;7.80;100.00
16016;BME280;8112;53.592;10.184;2024-03-02T01:36:38;100112.81;;;7.79;100.00
16016;BME280;8112;53.592;10.184;2024-03-02T01:41:40;100106.38;;;7.85;100.00
16016;BME280;8112;53.592;10.184;2024-03-02T01:46:42;100106.56;;;7.82;100.00
16016;BME280;8112;53.592;10.184;2024-03-02T01:51:46;100113.13;;;7.89;100.00
16016;BME280;8112;53.592;10.184;2024-03-02T01:56:48;100110.41;;;7.91;100.00
16016;BME280;8112;53.592;10.184;2024-03-02T02:01:50;100111.44;;;7.88;100.00
16016;BME280;8112;53.592;10.184;2024-03-02T02:06:54;100114.72;;;7.92;100.00
16016;BME280;8112;53.592;10.184;2024-03-02T02:11:56;100114.13;;;7.87;100.00
16016;BME280;8112;53.592;10.184;2024-03-02T02:16:58;100111.50;;;7.87;100.00
16016;BME280;8112;53.592;10.184;2024-03-02T02:22:02;100108.31;;;7.81;100.00
16016;BME280;8112;53.592;10.184;2024-03-02T02:27:04;100098.06;;;7.77;100.00
16016;BME280;8112;53.592;10.184;2024-03-02T02:32:06;100093.00;;;7.74;100.00
16016;BME280;8112;53.592;10.184;2024-03-02T02:37:09;100096.13;;;7.80;100.00
16016;BME280;8112;53.592;10.184;2024-03-02T02:42:11;100099.13;;;7.74;100.00
16016;BME280;8112;53.592;10.184;2024-03-02T02:47:17;100088.63;;;7.74;100.00
16016;BME280;8112;53.592;10.184;2024-03-02T02:52:20;100084.56;;;7.68;100.00
16016;BME280;8112;53.592;10.184;2024-03-02T02:57:22;100080.44;;;7.64;100.00
16016;BME280;8112;53.592;10.184;2024-03-02T03:02:27;100077.72;;;7.66;100.00
16016;BME280;8112;53.592;10.184;2024-03-02T03:07:31;100073.78;;;7.59;100.00
16016;BME280;8112;53.592;10.184;2024-03-02T03:12:33;100074.97;;;7.53;100.00
16016;BME280;8112;53.592;10.184;2024-03-02T03:17:35;100074.03;;;7.54;100.00
16016;BME280;8112;53.592;10.184;2024-03-02T03:22:39;100079.09;;;7.57;100.00
16016;BME280;8112;53.592;10.184;2024-03-02T03:27:42;100082.75;;;7.54;100.00
16016;BME280;8112;53.592;10.184;2024-03-02T03:32:44;100082.13;;;7.49;100.00
16016;BME280;8112;53.592;10.184;2024-03-02T03:37:50;100078.50;;;7.52;100.00
16016;BME280;8112;53.592;10.184;2024-03-02T03:42:52;100079.00;;;7.59;100.00
16016;BME280;8112;53.592;10.184;2024-03-02T03:47:54;100080.78;;;7.58;100.00
16016;BME280;8112;53.592;10.184;2024-03-02T03:52:58;100075.28;;;7.63;100.00
16016;BME280;8112;53.592;10.184;2024-03-02T03:58:00;100079.59;;;7.64;100.00
16016;BME280;8112;53.592;10.184;2024-03-02T04:03:02;100079.75;;;7.61;100.00
16016;BME280;8112;53.592;10.184;2024-03-02T04:08:06;100078.44;;;7.53;100.00
16016;BME280;8112;53.592;10.184;2024-03-02T04:13:08;100070.38;;;7.56;100.00
16016;BME280;8112;53.592;10.184;2024-03-02T04:18:10;100067.34;;;7.48;100.00
16016;BME280;8112;53.592;10.184;2024-03-02T04:23:13;100068.03;;;7.52;100.00
16016;BME280;8112;53.592;10.184;2024-03-02T04:28:18;100064.28;;;7.56;100.00
16016;BME280;8112;53.592;10.184;2024-03-02T04:33:19;100062.41;;;7.58;100.00
16016;BME280;8112;53.592;10.184;2024-03-02T04:38:23;100066.25;;;7.52;100.00
16016;BME280;8112;53.592;10.184;2024-03-02T04:43:25;100069.81;;;7.51;100.00
16016;BME280;8112;53.592;10.184;2024-03-02T04:48:27;100070.56;;;7.53;100.00
16016;BME280;8112;53.592;10.184;2024-03-02T04:53:32;100072.25;;;7.54;100.00
16016;BME280;8112;53.592;10.184;2024-03-02T04:58:34;100069.88;;;7.50;100.00
16016;BME280;8112;53.592;10.184;2024-03-02T05:03:36;100083.75;;;7.52;100.00
16016;BME280;8112;53.592;10.184;2024-03-02T05:08:39;100074.56;;;7.45;100.00
16016;BME280;8112;53.592;10.184;2024-03-02T05:13:42;100080.88;;;7.40;100.00
16016;BME280;8112;53.592;10.184;2024-03-02T05:18:44;100088.09;;;7.37;100.00
16016;BME280;8112;53.592;10.184;2024-03-02T05:23:48;100085.72;;;7.32;100.00
16016;BME280;8112;53.592;10.184;2024-03-02T05:28:50;100082.59;;;7.25;100.00
16016;BME280;8112;53.592;10.184;2024-03-02T05:33:54;100075.78;;;7.23;100.00
16016;BME280;8112;53.592;10.184;2024-03-02T05:38:57;100076.59;;;7.23;100.00
16016;BME280;8112;53.592;10.184;2024-03-02T05:43:59;100084.63;;;7.20;100.00
16016;BME280;8112;53.592;10.184;2024-03-02T05:49:02;100090.06;;;7.17;100.00
16016;BME280;8112;53.592;10.184;2024-03-02T05:54:05;100093.25;;;7.22;100.00
16016;BME280;8112;53.592;10.184;2024-03-02T05:59:07;100084.63;;;7.20;100.00
16016;BME280;8112;53.592;10.184;2024-03-02T06:04:13;100082.38;;;7.14;100.00
16016;BME280;8112;53.592;10.184;2024-03-02T06:09:16;100085.81;;;7.15;100.00
16016;BME280;8112;53.592;10.184;2024-03-02T06:14:20;100081.25;;;7.18;100.00
16016;BME280;8112;53.592;10.184;2024-03-02T06:19:22;100081.75;;;7.09;100.00
16016;BME280;8112;53.592;10.184;2024-03-02T06:24:25;100101.72;;;7.11;100.00
16016;BME280;8112;53.592;10.184;2024-03-02T06:29:27;100098.91;;;7.15;100.00
16016;BME280;8112;53.592;10.184;2024-03-02T06:34:29;100100.94;;;7.09;100.00
16016;BME280;8112;53.592;10.184;2024-03-02T06:39:33;100111.00;;;7.17;100.00
16016;BME280;8112;53.592;10.184;2024-03-02T06:44:36;100109.91;;;7.21;100.00
16016;BME280;8112;53.592;10.184;2024-03-02T06:49:38;100108.97;;;7.22;100.00
16016;BME280;8112;53.592;10.184;2024-03-02T06:54:43;100114.63;;;7.31;100.00
16016;BME280;8112;53.592;10.184;2024-03-02T06:59:46;100110.00;;;7.36;100.00
16016;BME280;8112;53.592;10.184;2024-03-02T07:04:50;100099.59;;;7.34;100.00
16016;BME280;8112;53.592;10.184;2024-03-02T07:09:54;100108.97;;;7.38;100.00
16016;BME280;8112;53.592;10.184;2024-03-02T07:14:56;100105.09;;;7.46;100.00
16016;BME280;8112;53.592;10.184;2024-03-02T07:20:25;100106.34;;;7.54;100.00
16016;BME280;8112;53.592;10.184;2024-03-02T07:25:28;100097.75;;;7.67;100.00
16016;BME280;8112;53.592;10.184;2024-03-02T07:30:31;100109.78;;;7.71;100.00
16016;BME280;8112;53.592;10.184;2024-03-02T07:35:34;100126.22;;;7.89;100.00
16016;BME280;8112;53.592;10.184;2024-03-02T07:40:37;100130.41;;;8.08;100.00
16016;BME280;8112;53.592;10.184;2024-03-02T07:45:40;100152.69;;;8.31;100.00
16016;BME280;8112;53.592;10.184;2024-03-02T07:50:42;100146.19;;;8.53;100.00
16016;BME280;8112;53.592;10.184;2024-03-02T07:55:46;100149.22;;;8.61;100.00
16016;BME280;8112;53.592;10.184;2024-03-02T08:00:48;100147.72;;;8.72;100.00
16016;BME280;8112;53.592;10.184;2024-03-02T08:05:50;100145.66;;;8.91;100.00
16016;BME280;8112;53.592;10.184;2024-03-02T08:10:53;100148.66;;;9.00;100.00
16016;BME280;8112;53.592;10.184;2024-03-02T08:15:56;100154.44;;;9.34;100.00
16016;BME280;8112;53.592;10.184;2024-03-02T08:20:58;100163.78;;;9.52;100.00
16016;BME280;8112;53.592;10.184;2024-03-02T08:26:01;100163.34;;;9.73;100.00
16016;BME280;8112;53.592;10.184;2024-03-02T08:31:03;100166.84;;;9.87;100.00
16016;BME280;8112;53.592;10.184;2024-03-02T08:36:06;100158.28;;;9.97;100.00
16016;BME280;8112;53.592;10.184;2024-03-02T08:41:11;100161.81;;;9.96;100.00
16016;BME280;8112;53.592;10.184;2024-03-02T08:46:16;100169.78;;;10.09;100.00
16016;BME280;8112;53.592;10.184;2024-03-02T08:51:18;100171.13;;;10.15;100.00
16016;BME280;8112;53.592;10.184;2024-03-02T08:56:22;100158.03;;;10.28;100.00
16016;BME280;8112;53.592;10.184;2024-03-02T09:01:24;100163.63;;;10.49;100.00
16016;BME280;8112;53.592;10.184;2024-03-02T09:06:26;100176.00;;;10.49;100.00
16016;BME280;8112;53.592;10.184;2024-03-02T09:11:31;100161.44;;;10.43;100.00
16016;BME280;8112;53.592;10.184;2024-03-02T09:16:34;100167.25;;;10.61;100.00
16016;BME280;8112;53.592;10.184;2024-03-02T09:21:37;100166.38;;;10.74;100.00
16016;BME280;8112;53.592;10.184;2024-03-02T09:26:42;100179.34;;;10.77;100.00
16016;BME280;8112;53.592;10.184;2024-03-02T09:31:43;100174.41;;;10.85;100.00
16016;BME280;8112;53.592;10.184;2024-03-02T09:36:45;100171.31;;;11.17;100.00
16016;BME280;8112;53.592;10.184;2024-03-02T09:41:49;100169.25;;;11.47;100.00
16016;BME280;8112;53.592;10.184;2024-03-02T09:46:51;100181.41;;;11.36;100.00
16016;BME280;8112;53.592;10.184;2024-03-02T09:51:53;100176.88;;;11.25;100.00
16016;BME280;8112;53.592;10.184;2024-03-02T09:56:57;100174.16;;;11.27;100.00
16016;BME280;8112;53.592;10.184;2024-03-02T10:02:00;100173.53;;;11.10;100.00
16016;BME280;8112;53.592;10.184;2024-03-02T10:07:14;100173.88;;;11.43;100.00
16016;BME280;8112;53.592;10.184;2024-03-02T10:12:18;100163.19;;;11.58;100.00
16016;BME280;8112;53.592;10.184;2024-03-02T10:17:20;100173.13;;;11.78;100.00
16016;BME280;8112;53.592;10.184;2024-03-02T10:22:23;100172.41;;;11.76;100.00
16016;BME280;8112;53.592;10.184;2024-03-02T10:27:28;100174.31;;;11.98;100.00
16016;BME280;8112;53.592;10.184;2024-03-02T10:32:30;100179.47;;;12.00;100.00
16016;BME280;8112;53.592;10.184;2024-03-02T10:37:33;100166.59;;;12.20;100.00
16016;BME280;8112;53.592;10.184;2024-03-02T10:42:37;100170.78;;;12.58;100.00
16016;BME280;8112;53.592;10.184;2024-03-02T10:47:40;100168.41;;;13.01;100.00
16016;BME280;8112;53.592;10.184;2024-03-02T10:52:43;100172.84;;;13.23;100.00
16016;BME280;8112;53.592;10.184;2024-03-02T10:57:50;100182.09;;;13.40;100.00
16016;BME280;8112;53.592;10.184;2024-03-02T11:02:56;100179.94;;;13.45;100.00
16016;BME280;8112;53.592;10.184;2024-03-02T11:08:02;100183.94;;;13.83;100.00
16016;BME280;8112;53.592;10.184;2024-03-02T11:13:09;100183.16;;;13.26;100.00
16016;BME280;8112;53.592;10.184;2024-03-02T11:18:11;100190.53;;;13.89;100.00
16016;BME280;8112;53.592;10.184;2024-03-02T11:23:15;100184.56;;;14.08;100.00
16016;BME280;8112;53.592;10.184;2024-03-02T11:28:34;100183.25;;;14.35;100.00
16016;BME280;8112;53.592;10.184;2024-03-02T11:33:37;100186.91;;;14.23;100.00
16016;BME280;8112;53.592;10.184;2024-03-02T11:38:43;100184.31;;;14.11;100.00
16016;BME280;8112;53.592;10.184;2024-03-02T11:43:47;100180.78;;;14.22;100.00
16016;BME280;8112;53.592;10.184;2024-03-02T11:48:50;100174.28;;;13.94;100.00
16016;BME280;8112;53.592;10.184;2024-03-02T11:53:54;100182.59;;;13.57;100.00
16016;BME280;8112;53.592;10.184;2024-03-02T11:58:59;100184.38;;;13.45;100.00
16016;BME280;8112;53.592;10.184;2024-03-02T12:04:01;100183.56;;;13.56;100.00
16016;BME280;8112;53.592;10.184;2024-03-02T12:09:05;100180.41;;;13.62;100.00
16016;BME280;8112;53.592;10.184;2024-03-02T12:14:13;100178.81;;;13.59;100.00
16016;BME280;8112;53.592;10.184;2024-03-02T12:19:15;100189.03;;;13.64;100.00
16016;BME280;8112;53.592;10.184;2024-03-02T12:24:18;100188.31;;;13.73;100.00
16016;BME280;8112;53.592;10.184;2024-03-02T12:29:21;100176.41;;;13.67;100.00
16016;BME280;8112;53.592;10.184;2024-03-02T12:34:24;100174.28;;;13.94;100.00
16016;BME280;8112;53.592;10.184;2024-03-02T12:39:26;100173.09;;;13.87;100.00
16016;BME280;8112;53.592;10.184;2024-03-02T13:47:05;100154.56;;;13.20;100.00
16016;BME280;8112;53.592;10.184;2024-03-02T13:52:07;100150.81;;;13.34;100.00
16016;BME280;8112;53.592;10.184;2024-03-02T13:57:13;100145.00;;;13.63;100.00
16016;BME280;8112;53.592;10.184;2024-03-02T14:02:16;100153.47;;;13.45;100.00
16016;BME280;8112;53.592;10.184;2024-03-02T14:07:18;100150.13;;;13.43;100.00
16016;BME280;8112;53.592;10.184;2024-03-02T14:12:20;100148.53;;;13.85;100.00
16016;BME280;8112;53.592;10.184;2024-03-02T14:17:24;100141.94;;;15.26;100.00
16016;BME280;8112;53.592;10.184;2024-03-02T14:22:26;100137.16;;;16.00;100.00
16016;BME280;8112;53.592;10.184;2024-03-02T14:27:28;100136.28;;;16.77;100.00
16016;BME280;8112;53.592;10.184;2024-03-02T14:32:31;100132.88;;;18.05;100.00
16016;BME280;8112;53.592;10.184;2024-03-02T14:37:32;100118.03;;;19.25;100.00
16016;BME280;8112;53.592;10.184;2024-03-02T14:42:34;100125.50;;;20.05;100.00
16016;BME280;8112;53.592;10.184;2024-03-02T14:47:37;100118.06;;;20.49;100.00
16016;BME280;8112;53.592;10.184;2024-03-02T14:52:39;100121.75;;;20.56;100.00
16016;BME280;8112;53.592;10.184;2024-03-02T14:57:40;100115.94;;;19.02;100.00
16016;BME280;8112;53.592;10.184;2024-03-02T15:02:44;100123.63;;;16.99;100.00
16016;BME280;8112;53.592;10.184;2024-03-02T15:07:45;100123.16;;;15.59;100.00
16016;BME280;8112;53.592;10.184;2024-03-02T15:12:47;100128.00;;;14.62;100.00
16016;BME280;8112;53.592;10.184;2024-03-02T15:17:50;100121.06;;;13.97;100.00
16016;BME280;8112;53.592;10.184;2024-03-02T15:22:52;100127.13;;;13.44;100.00
16016;BME280;8112;53.592;10.184;2024-03-02T15:27:54;100129.72;;;13.00;100.00
16016;BME280;8112;53.592;10.184;2024-03-02T15:32:57;100135.56;;;12.69;100.00
16016;BME280;8112;53.592;10.184;2024-03-02T15:37:59;100139.88;;;12.47;100.00
16016;BME280;8112;53.592;10.184;2024-03-02T15:43:00;100148.66;;;12.48;100.00
16016;BME280;8112;53.592;10.184;2024-03-02T15:48:04;100139.75;;;12.26;100.00
16016;BME280;8112;53.592;10.184;2024-03-02T15:53:06;100144.75;;;11.93;100.00
16016;BME280;8112;53.592;10.184;2024-03-02T15:58:07;100151.53;;;11.84;100.00
16016;BME280;8112;53.592;10.184;2024-03-02T16:03:10;100140.44;;;11.68;100.00
16016;BME280;8112;53.592;10.184;2024-03-02T16:08:12;100144.88;;;11.43;100.00
16016;BME280;8112;53.592;10.184;2024-03-02T16:13:14;100145.00;;;11.29;100.00
16016;BME280;8112;53.592;10.184;2024-03-02T16:18:17;100147.41;;;11.07;100.00
16016;BME280;8112;53.592;10.184;2024-03-02T16:23:19;100158.13;;;11.04;100.00
16016;BME280;8112;53.592;10.184;2024-03-02T16:28:20;100160.16;;;11.01;100.00
16016;BME280;8112;53.592;10.184;2024-03-02T16:33:24;100154.38;;;10.82;100.00
16016;BME280;8112;53.592;10.184;2024-03-02T16:38:25;100155.84;;;10.61;100.00
16016;BME280;8112;53.592;10.184;2024-03-02T16:43:27;100165.75;;;10.57;100.00
16016;BME280;8112;53.592;10.184;2024-03-02T16:48:30;100172.69;;;10.45;100.00
16016;BME280;8112;53.592;10.184;2024-03-02T16:53:33;100170.03;;;10.32;100.00
16016;BME280;8112;53.592;10.184;2024-03-02T16:58:35;100173.69;;;10.17;100.00
16016;BME280;8112;53.592;10.184;2024-03-02T17:03:39;100168.69;;;9.99;100.00
16016;BME280;8112;53.592;10.184;2024-03-02T17:08:41;100178.31;;;9.86;100.00
16016;BME280;8112;53.592;10.184;2024-03-02T17:13:42;100191.16;;;9.77;100.00
16016;BME280;8112;53.592;10.184;2024-03-02T17:18:46;100191.88;;;9.52;100.00
16016;BME280;8112;53.592;10.184;2024-03-02T17:23:47;100192.88;;;9.49;100.00
16016;BME280;8112;53.592;10.184;2024-03-02T17:28:49;100204.75;;;9.42;100.00
16016;BME280;8112;53.592;10.184;2024-03-02T17:33:52;100205.78;;;9.39;100.00
16016;BME280;8112;53.592;10.184;2024-03-02T17:38:54;100195.00;;;9.30;100.00
16016;BME280;8112;53.592;10.184;2024-03-02T17:43:55;100209.06;;;9.29;100.00
16016;BME280;8112;53.592;10.184;2024-03-02T17:48:58;100198.75;;;9.25;100.00
16016;BME280;8112;53.592;10.184;2024-03-02T17:54:00;100201.78;;;9.19;100.00
16016;BME280;8112;53.592;10.184;2024-03-02T17:59:02;100200.38;;;9.13;100.00
16016;BME280;8112;53.592;10.184;2024-03-02T18:04:05;100206.84;;;9.08;100.00
16016;BME280;8112;53.592;10.184;2024-03-02T18:09:07;100205.34;;;9.04;100.00
16016;BME280;8112;53.592;10.184;2024-03-02T18:14:09;100206.38;;;9.01;100.00
16016;BME280;8112;53.592;10.184;2024-03-02T18:19:12;100207.50;;;8.97;100.00
16016;BME280;8112;53.592;10.184;2024-03-02T18:24:13;100207.22;;;8.87;100.00
16016;BME280;8112;53.592;10.184;2024-03-02T18:29:15;100214.63;;;8.80;100.00
16016;BME280;8112;53.592;10.184;2024-03-02T18:34:18;100221.25;;;8.72;100.00
16016;BME280;8112;53.592;10.184;2024-03-02T18:39:20;100222.47;;;8.66;100.00
16016;BME280;8112;53.592;10.184;2024-03-02T18:44:22;100217.41;;;8.63;100.00
16016;BME280;8112;53.592;10.184;2024-03-02T18:49:26;100218.25;;;8.63;100.00
16016;BME280;8112;53.592;10.184;2024-03-02T18:54:28;100222.91;;;8.58;100.00
16016;BME280;8112;53.592;10.184;2024-03-02T18:59:29;100234.53;;;8.54;100.00
16016;BME280;8112;53.592;10.184;2024-03-02T19:04:33;100231.16;;;8.52;100.00
16016;BME280;8112;53.592;10.184;2024-03-02T19:09:34;100229.88;;;8.43;100.00
16016;BME280;8112;53.592;10.184;2024-03-02T19:14:36;100236.34;;;8.37;100.00
16016;BME280;8112;53.592;10.184;2024-03-02T19:19:39;100240.84;;;8.35;100.00
16016;BME280;8112;53.592;10.184;2024-03-02T19:24:41;100237.63;;;8.30;100.00
16016;BME280;8112;53.592;10.184;2024-03-02T19:29:42;100245.59;;;8.28;100.00
16016;BME280;8112;53.592;10.184;2024-03-02T19:34:46;100242.22;;;8.26;100.00
16016;BME280;8112;53.592;10.184;2024-03-02T19:39:48;100242.63;;;8.19;100.00
16016;BME280;8112;53.592;10.184;2024-03-02T19:44:49;100247.56;;;8.09;100.00
16016;BME280;8112;53.592;10.184;2024-03-02T19:49:52;100246.31;;;8.00;100.00
16016;BME280;8112;53.592;10.184;2024-03-02T19:54:54;100240.22;;;7.99;100.00
16016;BME280;8112;53.592;10.184;2024-03-02T19:59:56;100242.94;;;7.98;100.00
16016;BME280;8112;53.592;10.184;2024-03-02T20:04:59;100242.94;;;7.98;100.00
16016;BME280;8112;53.592;10.184;2024-03-02T20:10:01;100243.44;;;8.05;100.00
16016;BME280;8112;53.592;10.184;2024-03-02T20:15:08;100240.06;;;8.03;100.00
16016;BME280;8112;53.592;10.184;2024-03-02T20:20:13;100236.00;;;7.97;100.00
16016;BME280;8112;53.592;10.184;2024-03-02T20:25:16;100243.28;;;7.92;100.00
16016;BME280;8112;53.592;10.184;2024-03-02T20:30:17;100247.50;;;7.94;100.00
16016;BME280;8112;53.592;10.184;2024-03-02T20:35:20;100241.78;;;7.88;100.00
16016;BME280;8112;53.592;10.184;2024-03-02T20:40:22;100243.78;;;7.82;100.00
16016;BME280;8112;53.592;10.184;2024-03-02T20:45:24;100238.81;;;7.78;100.00
16016;BME280;8112;53.592;10.184;2024-03-02T20:50:27;100239.06;;;7.73;100.00
16016;BME280;8112;53.592;10.184;2024-03-02T20:55:28;100249.72;;;7.70;100.00
16016;BME280;8112;53.592;10.184;2024-03-02T21:00:30;100241.16;;;7.66;100.00
16016;BME280;8112;53.592;10.184;2024-03-02T21:05:33;100246.75;;;7.60;100.00
16016;BME280;8112;53.592;10.184;2024-03-02T21:10:35;100244.22;;;7.59;100.00
16016;BME280;8112;53.592;10.184;2024-03-02T21:15:36;100249.63;;;7.55;100.00
16016;BME280;8112;53.592;10.184;2024-03-02T21:20:39;100238.53;;;7.50;100.00
16016;BME280;8112;53.592;10.184;2024-03-02T21:25:41;100248.16;;;7.50;100.00
16016;BME280;8112;53.592;10.184;2024-03-02T21:30:43;100247.47;;;7.46;100.00
16016;BME280;8112;53.592;10.184;2024-03-02T21:35:46;100239.78;;;7.43;100.00
16016;BME280;8112;53.592;10.184;2024-03-02T21:40:48;100244.09;;;7.44;100.00
16016;BME280;8112;53.592;10.184;2024-03-02T21:45:50;100250.09;;;7.46;100.00
16016;BME280;8112;53.592;10.184;2024-03-02T21:50:53;100251.22;;;7.42;100.00
16016;BME280;8112;53.592;10.184;2024-03-02T21:55:54;100249.34;;;7.44;100.00
16016;BME280;8112;53.592;10.184;2024-03-02T22:00:56;100237.50;;;7.37;100.00
16016;BME280;8112;53.592;10.184;2024-03-02T22:05:59;100237.50;;;7.37;100.00
16016;BME280;8112;53.592;10.184;2024-03-02T22:11:01;100236.81;;;7.33;100.00
16016;BME280;8112;53.592;10.184;2024-03-02T22:16:03;100235.81;;;7.36;100.00
16016;BME280;8112;53.592;10.184;2024-03-02T22:21:07;100236.00;;;7.33;100.00
16016;BME280;8112;53.592;10.184;2024-03-02T22:26:08;100227.19;;;7.34;100.00
16016;BME280;8112;53.592;10.184;2024-03-02T22:31:10;100229.03;;;7.32;100.00
16016;BME280;8112;53.592;10.184;2024-03-02T22:36:13;100225.91;;;7.25;100.00
16016;BME280;8112;53.592;10.184;2024-03-02T22:41:15;100219.22;;;7.19;100.00
16016;BME280;8112;53.592;10.184;2024-03-02T22:46:16;100212.44;;;7.15;100.00
16016;BME280;8112;53.592;10.184;2024-03-02T22:51:24;100218.44;;;7.17;100.00
16016;BME280;8112;53.592;10.184;2024-03-02T22:56:26;100210.75;;;7.14;100.00
16016;BME280;8112;53.592;10.184;2024-03-02T23:01:27;100214.13;;;7.16;100.00
16016;BME280;8112;53.592;10.184;2024-03-02T23:06:30;100210.75;;;7.14;100.00
16016;BME280;8112;53.592;10.184;2024-03-02T23:11:32;100215.38;;;7.09;100.00
16016;BME280;8112;53.592;10.184;2024-03-02T23:16:35;100216.06;;;7.12;100.00
16016;BME280;8112;53.592;10.184;2024-03-02T23:21:40;100222.72;;;7.02;100.00
16016;BME280;8112;53.592;10.184;2024-03-02T23:26:42;100214.94;;;7.01;100.00
16016;BME280;8112;53.592;10.184;2024-03-02T23:31:44;100211.88;;;6.92;100.00
16016;BME280;8112;53.592;10.184;2024-03-02T23:36:47;100221.56;;;6.90;100.00
16016;BME280;8112;53.592;10.184;2024-03-02T23:41:48;100221.16;;;6.82;100.00
16016;BME280;8112;53.592;10.184;2024-03-02T23:46:50;100231.91;;;6.76;100.00
16016;BME280;8112;53.592;10.184;2024-03-02T23:51:53;100231.91;;;6.76;100.00
16016;BME280;8112;53.592;10.184;2024-03-02T23:56:55;100223.28;;;6.74;100.00
